Time;durP1;ratioP1;P1;durP2;ratioP2;P2;SDS_P1;SDS_P2;PMS_P1;PMS_P2;Temp;Humidity;BMP_temperature;BMP_pressure;BME280_temperature;BME280_humidity;BME280_pressure;Samples;Min_cycle;Max_cycle;Signal;HPM_P1;HPM_P2
2022/02/22 00:02:10;;;;;;;;;;;;;;;15.15;50.27;99752.53;5075645;28;1009;-55
2022/02/22 00:04:38;;;;;;;;;;;;;;;17.38;45.04;99744.47;5076143;28;849;-56
2022/02/22 00:07:05;;;;;;;;;;;;;;;18.55;42.14;99749.72;5076562;28;782;-55
2022/02/22 00:09:31;;;;;;;;;;;;;;;17.91;43.56;99753.38;5075907;28;926;-55
2022/02/22 00:11:56;;;;;;;;;;;;;;;17.77;43.98;99764.34;5074812;28;1175;-54
2022/02/22 00:14:22;;;;;;;;;;;;;;;15.84;48.31;99747.69;5076423;28;1163;-55
2022/02/22 00:16:48;;;;;;;;;;;;;;;16.10;48.51;99739.13;5075464;28;1040;-55
2022/02/22 00:19:13;;;;;;;;;;;;;;;18.60;42.13;99724.84;5076120;28;1902;-55
2022/02/22 00:21:39;;;;;;;;;;;;;;;18.12;43.07;99724.28;5076049;28;928;-56
2022/02/22 00:24:04;;;;;;;;;;;;;;;18.20;43.18;99730.16;5075996;28;881;-55
2022/02/22 00:26:30;;;;;;;;;;;;;;;17.01;45.44;99717.97;5075856;28;869;-56
2022/02/22 00:28:55;;;;;;;;;;;;;;;15.31;50.02;99721.16;5076140;28;932;-55
2022/02/22 00:31:22;;;;;;;;;;;;;;;15.62;49.20;99725.47;5108085;28;824;-55
2022/02/22 00:33:48;;;;;;;;;;;;;;;15.73;48.88;99719.56;5076149;28;908;-55
2022/02/22 00:36:13;;;;;;;;;;;;;;;16.75;46.77;99710.16;5076199;28;915;-56
2022/02/22 00:38:39;;;;;;;;;;;;;;;16.77;46.57;99700.50;5075680;28;1972;-56
2022/02/22 00:41:04;;;;;;;;;;;;;;;16.32;47.55;99693.84;5075812;28;828;-56
2022/02/22 00:43:30;;;;;;;;;;;;;;;15.91;48.80;99687.03;5076281;28;931;-56
2022/02/22 00:45:55;;;;;;;;;;;;;;;15.86;48.65;99687.91;5075746;28;1027;-55
2022/02/22 00:48:21;;;;;;;;;;;;;;;15.70;49.28;99690.00;5075977;28;742;-54
2022/02/22 00:50:46;;;;;;;;;;;;;;;16.66;46.84;99682.59;5075871;28;793;-53
2022/02/22 00:53:12;;;;;;;;;;;;;;;16.95;46.10;99678.00;5075683;28;843;-55
2022/02/22 00:55:37;;;;;;;;;;;;;;;16.52;47.01;99668.81;5075801;28;837;-55
2022/02/22 00:58:03;;;;;;;;;;;;;;;16.91;46.20;99683.28;5076185;28;852;-51
2022/02/22 01:00:28;;;;;;;;;;;;;;;16.43;46.93;99673.34;5079099;28;1909;-53
2022/02/22 01:02:53;;;;;;;;;;;;;;;15.39;50.14;99679.44;5079507;28;822;-54
2022/02/22 01:05:19;;;;;;;;;;;;;;;16.47;47.40;99679.06;5079569;28;821;-54
2022/02/22 01:07:44;;;;;;;;;;;;;;;17.05;45.63;99669.56;5079972;28;797;-53
2022/02/22 01:10:10;;;;;;;;;;;;;;;16.52;47.20;99678.97;5079270;28;1114;-53
2022/02/22 01:12:35;;;;;;;;;;;;;;;16.60;47.01;99668.13;5079607;28;1012;-55
2022/02/22 01:15:01;;;;;;;;;;;;;;;16.10;48.12;99691.69;5079183;28;907;-53
2022/02/22 01:17:26;;;;;;;;;;;;;;;16.03;48.40;99668.22;5079261;28;958;-52
2022/02/22 01:19:52;;;;;;;;;;;;;;;15.70;49.21;99683.72;5079202;28;1905;-54
2022/02/22 01:22:17;;;;;;;;;;;;;;;16.28;47.58;99668.91;5080000;28;830;-54
2022/02/22 01:24:43;;;;;;;;;;;;;;;16.53;47.13;99673.19;5079424;28;832;-55
2022/02/22 01:27:08;;;;;;;;;;;;;;;16.92;45.93;99668.44;5079585;28;789;-55
2022/02/22 01:29:33;;;;;;;;;;;;;;;16.84;46.39;99667.16;5078910;28;854;-54
2022/02/22 01:31:59;;;;;;;;;;;;;;;16.29;47.54;99667.81;5078879;28;912;-55
2022/02/22 01:34:24;;;;;;;;;;;;;;;15.17;50.34;99666.25;5079511;28;816;-55
2022/02/22 01:36:50;;;;;;;;;;;;;;;17.55;44.64;99675.16;5079301;28;849;-55
2022/02/22 01:39:15;;;;;;;;;;;;;;;18.50;42.30;99678.31;5079319;28;1968;-55
2022/02/22 01:41:41;;;;;;;;;;;;;;;18.32;42.55;99675.41;5110954;28;907;-55
2022/02/22 01:44:06;;;;;;;;;;;;;;;18.07;43.05;99674.06;5078637;28;957;-55
2022/02/22 01:46:32;;;;;;;;;;;;;;;17.09;45.24;99687.88;5078987;28;1072;-55
2022/02/22 01:48:58;;;;;;;;;;;;;;;15.49;49.20;99673.00;5078791;28;1086;-55
2022/02/22 01:51:24;;;;;;;;;;;;;;;16.45;47.83;99664.81;5078598;28;892;-54
2022/02/22 01:53:49;;;;;;;;;;;;;;;18.64;42.29;99679.84;5078747;28;916;-55
2022/02/22 01:56:15;;;;;;;;;;;;;;;17.94;43.67;99676.53;5078558;28;793;-55
2022/02/22 01:58:41;;;;;;;;;;;;;;;18.22;42.81;99681.16;5078629;28;1905;-55
2022/02/22 02:01:07;;;;;;;;;;;;;;;16.69;46.22;99668.25;5110451;28;1401;-55
2022/02/22 02:03:33;;;;;;;;;;;;;;;15.24;50.29;99654.97;5078399;28;821;-55
2022/02/22 02:05:58;;;;;;;;;;;;;;;17.66;44.49;99670.25;5078821;28;768;-55
2022/02/22 02:08:24;;;;;;;;;;;;;;;18.62;42.10;99657.31;5110756;28;812;-55
2022/02/22 02:10:49;;;;;;;;;;;;;;;17.97;43.82;99664.13;5077289;28;1020;-55
2022/02/22 02:13:15;;;;;;;;;;;;;;;17.78;43.80;99651.31;5078176;28;1102;-56
2022/02/22 02:15:40;;;;;;;;;;;;;;;16.02;47.91;99644.63;5071371;28;920;-55
2022/02/22 02:18:06;;;;;;;;;;;;;;;15.73;49.46;99640.09;5078547;28;888;-55
2022/02/22 02:20:31;;;;;;;;;;;;;;;18.37;42.82;99634.00;5078060;28;1914;-55
2022/02/22 02:22:57;;;;;;;;;;;;;;;18.01;43.35;99637.63;5077956;28;781;-55
2022/02/22 02:25:23;;;;;;;;;;;;;;;17.92;43.73;99639.47;5078473;28;750;-55
2022/02/22 02:27:48;;;;;;;;;;;;;;;16.99;45.68;99633.16;5078418;28;852;-55
2022/02/22 02:30:14;;;;;;;;;;;;;;;15.33;49.57;99636.78;5077743;28;886;-53
2022/02/22 02:32:40;;;;;;;;;;;;;;;17.08;46.15;99638.72;5078193;28;904;-55
2022/02/22 02:35:06;;;;;;;;;;;;;;;18.72;41.92;99623.22;5077774;28;848;-56
2022/02/22 02:37:35;;;;;;;;;;;;;;;17.81;43.86;99638.03;5077861;28;849;-55
2022/02/22 02:40:02;;;;;;;;;;;;;;;17.86;43.85;99619.50;5077757;28;1992;-53
2022/02/22 02:42:27;;;;;;;;;;;;;;;16.07;47.75;99633.59;5078025;28;820;-53
2022/02/22 02:44:52;;;;;;;;;;;;;;;15.45;49.86;99638.28;5078089;28;821;-54
2022/02/22 02:47:18;;;;;;;;;;;;;;;16.03;48.14;99631.75;5077409;28;994;-54
2022/02/22 02:49:43;;;;;;;;;;;;;;;16.09;47.73;99633.31;5077847;28;856;-54
2022/02/22 02:52:09;;;;;;;;;;;;;;;15.72;49.31;99630.25;5077699;28;762;-54
2022/02/22 02:54:34;;;;;;;;;;;;;;;16.29;47.95;99629.41;5077828;28;812;-54
2022/02/22 02:57:00;;;;;;;;;;;;;;;16.16;47.88;99636.47;5077783;28;766;-53
2022/02/22 02:59:25;;;;;;;;;;;;;;;16.06;48.11;99636.63;5077177;28;1913;-54
2022/02/22 03:01:51;;;;;;;;;;;;;;;16.09;47.86;99630.56;5077606;28;800;-54
2022/02/22 03:04:17;;;;;;;;;;;;;;;16.25;47.75;99639.34;5077153;28;789;-54
2022/02/22 03:06:43;;;;;;;;;;;;;;;16.43;47.38;99624.78;5077280;28;969;-54
2022/02/22 03:09:08;;;;;;;;;;;;;;;16.69;46.60;99629.00;5077293;28;1439;-55
2022/02/22 03:11:34;;;;;;;;;;;;;;;16.80;46.49;99624.13;5076787;28;988;-53
2022/02/22 03:13:59;;;;;;;;;;;;;;;16.73;46.39;99650.06;5076988;28;1291;-54
2022/02/22 03:16:25;;;;;;;;;;;;;;;16.24;47.55;99626.75;5077072;28;874;-54
2022/02/22 03:18:50;;;;;;;;;;;;;;;15.51;49.67;99620.66;5077415;28;1968;-53
2022/02/22 03:21:16;;;;;;;;;;;;;;;17.88;44.02;99631.00;5077620;28;793;-53
2022/02/22 03:23:41;;;;;;;;;;;;;;;18.05;43.21;99622.13;5109237;28;992;-54
2022/02/22 03:26:07;;;;;;;;;;;;;;;17.47;44.77;99618.16;5076708;28;872;-55
2022/02/22 03:28:32;;;;;;;;;;;;;;;16.98;45.83;99626.00;5076967;28;801;-56
2022/02/22 03:30:58;;;;;;;;;;;;;;;15.42;49.61;99622.41;5076519;28;831;-55
2022/02/22 03:33:23;;;;;;;;;;;;;;;17.52;44.78;99637.28;5076887;28;750;-56
2022/02/22 03:35:49;;;;;;;;;;;;;;;18.62;42.05;99635.31;5077434;28;834;-56
2022/02/22 03:38:15;;;;;;;;;;;;;;;17.93;43.45;99643.84;5076280;28;820;-55
2022/02/22 03:40:40;;;;;;;;;;;;;;;18.02;43.53;99639.25;5076810;28;1981;-55
2022/02/22 03:43:06;;;;;;;;;;;;;;;16.01;47.85;99623.81;5076798;28;778;-55
2022/02/22 03:45:31;;;;;;;;;;;;;;;16.20;48.28;99628.44;5076326;28;884;-55
2022/02/22 03:47:56;;;;;;;;;;;;;;;18.56;42.21;99620.03;5076652;28;1389;-55
2022/02/22 03:50:22;;;;;;;;;;;;;;;17.90;43.66;99626.00;5076514;28;844;-55
2022/02/22 03:52:47;;;;;;;;;;;;;;;18.11;43.22;99633.81;5076166;28;968;-55
2022/02/22 03:55:13;;;;;;;;;;;;;;;16.91;45.64;99628.34;5077097;28;906;-55
2022/02/22 03:57:38;;;;;;;;;;;;;;;15.15;49.85;99618.38;5076706;28;883;-55
2022/02/22 04:00:04;;;;;;;;;;;;;;;16.96;46.36;99619.19;5076115;28;1997;-55
2022/02/22 04:02:30;;;;;;;;;;;;;;;18.76;42.08;99610.44;5075613;28;792;-55
2022/02/22 04:04:56;;;;;;;;;;;;;;;17.83;44.02;99625.63;5076258;28;943;-55
2022/02/22 04:07:21;;;;;;;;;;;;;;;17.90;43.88;99614.19;5076307;28;744;-55
2022/02/22 04:09:47;;;;;;;;;;;;;;;16.39;47.23;99621.00;5076881;28;719;-55
2022/02/22 04:12:12;;;;;;;;;;;;;;;15.17;50.32;99614.22;5076032;28;1138;-53
2022/02/22 04:14:38;;;;;;;;;;;;;;;17.67;44.58;99621.59;5076282;28;1259;-55
2022/02/22 04:17:04;;;;;;;;;;;;;;;18.50;42.38;99629.56;5075632;28;840;-54
2022/02/22 04:19:29;;;;;;;;;;;;;;;17.84;44.00;99618.19;5108972;28;1913;-53
2022/02/22 04:21:55;;;;;;;;;;;;;;;17.69;44.29;99614.66;5076008;28;738;-55
2022/02/22 04:24:20;;;;;;;;;;;;;;;15.91;48.31;99602.84;5076357;28;738;-54
2022/02/22 04:26:47;;;;;;;;;;;;;;;15.49;49.61;99603.72;5075915;28;852;-54
2022/02/22 04:29:13;;;;;;;;;;;;;;;15.86;48.32;99596.63;5075779;28;769;-53
2022/02/22 04:31:38;;;;;;;;;;;;;;;15.84;48.35;99613.38;5076062;28;872;-55
2022/02/22 04:34:07;;;;;;;;;;;;;;;16.24;47.90;99622.09;5075669;28;889;-55
2022/02/22 04:36:33;;;;;;;;;;;;;;;16.34;47.67;99623.00;5076335;28;886;-55
2022/02/22 04:38:59;;;;;;;;;;;;;;;16.12;48.10;99629.13;5076049;28;1976;-55
2022/02/22 04:41:24;;;;;;;;;;;;;;;16.15;48.07;99626.63;5076130;28;781;-55
2022/02/22 04:43:50;;;;;;;;;;;;;;;16.29;47.78;99634.09;5108048;28;1161;-55
2022/02/22 04:46:15;;;;;;;;;;;;;;;16.64;47.09;99632.66;5075673;28;1467;-55
2022/02/22 04:48:41;;;;;;;;;;;;;;;16.47;47.36;99629.69;5076118;28;809;-55
2022/02/22 04:51:06;;;;;;;;;;;;;;;16.62;47.03;99647.78;5075936;28;797;-55
2022/02/22 04:53:32;;;;;;;;;;;;;;;16.61;46.49;99647.00;5075700;28;801;-55
2022/02/22 04:55:57;;;;;;;;;;;;;;;15.53;49.10;99640.38;5076289;28;732;-55
2022/02/22 04:58:22;;;;;;;;;;;;;;;16.34;48.16;99647.72;5075745;28;805;-55
2022/02/22 05:00:48;;;;;;;;;;;;;;;16.85;46.74;99662.50;5075499;28;1905;-55
2022/02/22 05:03:14;;;;;;;;;;;;;;;16.83;46.47;99659.22;5075788;28;852;-55
2022/02/22 05:05:39;;;;;;;;;;;;;;;16.93;46.15;99661.81;5075564;28;821;-55
2022/02/22 05:08:05;;;;;;;;;;;;;;;16.40;47.42;99674.75;5076171;28;809;-55
2022/02/22 05:10:30;;;;;;;;;;;;;;;15.04;50.81;99678.72;5108526;28;1067;-56
2022/02/22 05:12:55;;;;;;;;;;;;;;;17.60;44.66;99688.00;5075392;28;1005;-55
2022/02/22 05:15:21;;;;;;;;;;;;;;;18.18;43.13;99683.72;5075221;28;891;-56
2022/02/22 05:17:46;;;;;;;;;;;;;;;17.64;44.50;99694.47;5075482;28;1044;-56
2022/02/22 05:20:12;;;;;;;;;;;;;;;17.28;44.92;99703.47;5075804;28;1988;-56
2022/02/22 05:22:38;;;;;;;;;;;;;;;15.56;49.11;99695.38;5075923;28;843;-53
2022/02/22 05:25:04;;;;;;;;;;;;;;;16.80;46.79;99690.03;5075698;28;935;-55
2022/02/22 05:27:29;;;;;;;;;;;;;;;18.63;42.04;99691.16;5075681;28;1103;-55
2022/02/22 05:29:55;;;;;;;;;;;;;;;17.79;44.18;99707.09;5074803;28;1305;-55
2022/02/22 05:32:20;;;;;;;;;;;;;;;18.13;42.94;99703.06;5074536;28;1047;-56
2022/02/22 05:34:46;;;;;;;;;;;;;;;16.42;46.99;99700.00;5073798;28;1139;-54
2022/02/22 05:37:12;;;;;;;;;;;;;;;15.28;50.09;99699.84;5075625;28;1253;-52
2022/02/22 05:39:38;;;;;;;;;;;;;;;17.89;43.95;99703.31;5075565;28;1910;-53
2022/02/22 05:42:03;;;;;;;;;;;;;;;18.38;42.31;99696.16;5075462;28;785;-49
2022/02/22 05:44:29;;;;;;;;;;;;;;;18.17;43.16;99698.59;5074679;28;851;-52
2022/02/22 05:46:54;;;;;;;;;;;;;;;17.98;43.56;99707.00;5078000;28;1085;-52
2022/02/22 05:49:23;;;;;;;;;;;;;;;15.97;48.08;99702.28;5078680;28;1051;-52
2022/02/22 05:51:48;;;;;;;;;;;;;;;16.20;48.34;99710.72;5078783;28;1300;-48
2022/02/22 05:54:13;;;;;;;;;;;;;;;18.63;42.36;99711.28;5078156;28;1413;-50
2022/02/22 05:56:39;;;;;;;;;;;;;;;18.20;43.08;99721.91;5078512;28;1143;-54
2022/02/22 05:59:05;;;;;;;;;;;;;;;18.24;42.87;99710.00;5078825;28;1902;-54
2022/02/22 06:01:33;;;;;;;;;;;;;;;17.26;44.90;99705.69;5078096;28;815;-50
2022/02/22 06:03:59;;;;;;;;;;;;;;;15.86;48.06;99698.06;5078989;28;832;-51
2022/02/22 06:06:24;;;;;;;;;;;;;;;15.65;49.58;99695.53;5078076;28;789;-50
2022/02/22 06:08:49;;;;;;;;;;;;;;;18.33;42.51;99698.22;5078756;28;817;-50
2022/02/22 06:11:15;;;;;;;;;;;;;;;18.42;42.18;99705.44;5078357;28;935;-50
2022/02/22 06:13:41;;;;;;;;;;;;;;;18.20;42.89;99699.91;5077717;28;1148;-48
2022/02/22 06:16:06;;;;;;;;;;;;;;;17.58;43.98;99707.53;5078189;28;891;-51
2022/02/22 06:18:32;;;;;;;;;;;;;;;15.89;48.12;99708.44;5078225;28;909;-52
2022/02/22 06:20:57;;;;;;;;;;;;;;;16.45;47.72;99723.25;5078248;28;1921;-51
2022/02/22 06:23:23;;;;;;;;;;;;;;;18.88;41.44;99722.78;5078137;28;812;-51
2022/02/22 06:25:48;;;;;;;;;;;;;;;18.44;42.72;99721.66;5077898;28;821;-52
2022/02/22 06:28:14;;;;;;;;;;;;;;;18.50;42.47;99714.88;5077757;28;860;-53
2022/02/22 06:30:39;;;;;;;;;;;;;;;17.06;45.44;99710.44;5077919;28;1105;-53
2022/02/22 06:33:05;;;;;;;;;;;;;;;15.33;49.57;99713.47;5077819;28;852;-51
2022/02/22 06:35:30;;;;;;;;;;;;;;;17.45;45.57;99709.16;5077496;28;885;-52
2022/02/22 06:37:56;;;;;;;;;;;;;;;18.90;41.91;99705.94;5078254;28;781;-49
2022/02/22 06:40:21;;;;;;;;;;;;;;;18.48;42.62;99708.88;5077857;28;1913;-53
2022/02/22 06:42:47;;;;;;;;;;;;;;;18.79;41.89;99699.88;5077734;28;781;-50
2022/02/22 06:45:12;;;;;;;;;;;;;;;16.91;46.11;99694.25;5077694;28;883;-52
2022/02/22 06:47:38;;;;;;;;;;;;;;;15.39;49.52;99684.91;5076992;28;821;-53
2022/02/22 06:50:04;;;;;;;;;;;;;;;16.64;47.64;99690.28;5078326;28;761;-54
2022/02/22 06:52:30;;;;;;;;;;;;;;;18.75;42.08;99685.09;5077877;28;836;-54
2022/02/22 06:54:55;;;;;;;;;;;;;;;18.04;43.64;99697.50;5077719;28;794;-52
2022/02/22 06:57:21;;;;;;;;;;;;;;;17.77;44.14;99688.16;5076913;28;880;-53
2022/02/22 06:59:46;;;;;;;;;;;;;;;16.46;47.48;99682.94;5077686;28;1901;-62
2022/02/22 07:02:12;;;;;;;;;;;;;;;15.45;50.50;99691.16;5076376;28;1454;-61
2022/02/22 07:04:37;;;;;;;;;;;;;;;17.53;45.55;99695.81;5072488;28;1285;-66
2022/02/22 07:07:06;;;;;;;;;;;;;;;18.63;42.33;99689.25;5078914;28;1293;-62
2022/02/22 07:09:32;;;;;;;;;;;;;;;17.69;44.68;99697.13;5078663;28;1438;-62
2022/02/22 07:11:57;;;;;;;;;;;;;;;17.10;45.88;99689.50;5082869;28;1328;-59
2022/02/22 07:14:22;;;;;;;;;;;;;;;15.72;49.66;99687.81;5076946;28;1308;-62
2022/02/22 07:16:48;;;;;;;;;;;;;;;15.82;49.82;99686.88;5075768;28;1197;-59
2022/02/22 07:19:13;;;;;;;;;;;;;;;18.23;43.79;99696.53;5074955;28;1972;-61
2022/02/22 07:21:39;;;;;;;;;;;;;;;18.31;43.73;99684.78;5077916;28;1279;-63
2022/02/22 07:24:04;;;;;;;;;;;;;;;17.58;45.59;99674.53;5078373;28;1491;-65
2022/02/22 07:26:30;;;;;;;;;;;;;;;16.61;47.94;99685.41;5080026;28;1257;-59
2022/02/22 07:28:55;;;;;;;;;;;;;;;15.42;51.55;99682.69;5075495;28;1558;-62
2022/02/22 07:31:20;;;;;;;;;;;;;;;17.55;46.22;99686.16;5078578;28;1197;-63
2022/02/22 07:33:46;;;;;;;;;;;;;;;19.26;42.12;99685.69;5078183;28;1574;-61
2022/02/22 07:36:11;;;;;;;;;;;;;;;19.43;41.65;99691.28;5084960;28;1381;-64
2022/02/22 07:38:37;;;;;;;;;;;;;;;18.16;44.48;99693.41;5082870;28;1369;-62
2022/02/22 07:41:02;;;;;;;;;;;;;;;17.33;46.77;99708.03;5077698;28;1917;-58
2022/02/22 07:43:28;;;;;;;;;;;;;;;15.91;49.04;99696.06;5081693;28;1441;-69
2022/02/22 07:45:53;;;;;;;;;;;;;;;17.42;47.67;99715.28;5073771;28;1582;-65
2022/02/22 07:48:18;;;;;;;;;;;;;;;18.71;44.49;99709.69;5081677;28;1526;-66
2022/02/22 07:50:44;;;;;;;;;;;;;;;19.21;43.25;99708.72;5075939;28;828;-66
2022/02/22 07:53:09;;;;;;;;;;;;;;;19.53;42.22;99711.41;5075813;28;847;-74
2022/02/22 07:55:35;;;;;;;;;;;;;;;19.80;41.48;99704.88;5076400;28;805;-70
2022/02/22 07:58:00;;;;;;;;;;;;;;;19.93;41.16;99703.91;5076353;28;777;-65
2022/02/22 08:00:26;;;;;;;;;;;;;;;20.12;40.72;99714.66;5076320;28;1918;-64
2022/02/22 08:02:54;;;;;;;;;;;;;;;20.25;40.27;99712.88;5076965;28;797;-64
2022/02/22 08:05:20;;;;;;;;;;;;;;;20.43;39.98;99702.63;5076071;28;856;-64
2022/02/22 08:07:46;;;;;;;;;;;;;;;20.65;39.42;99706.34;5076173;28;798;-64
2022/02/22 08:10:11;;;;;;;;;;;;;;;20.69;39.38;99718.38;5076274;28;784;-65
2022/02/22 08:12:37;;;;;;;;;;;;;;;20.75;39.17;99710.75;5108470;28;1167;-53
2022/02/22 08:15:03;;;;;;;;;;;;;;;20.78;39.41;99718.41;5069722;28;863;-55
2022/02/22 08:17:29;;;;;;;;;;;;;;;20.94;39.12;99722.25;5075631;28;829;-55
2022/02/22 08:19:54;;;;;;;;;;;;;;;20.88;38.81;99725.53;5076358;28;1967;-56
2022/02/22 08:22:20;;;;;;;;;;;;;;;19.77;41.54;99731.13;5076341;28;836;-57
2022/02/22 08:24:45;;;;;;;;;;;;;;;19.79;41.53;99731.63;5076119;28;818;-57
2022/02/22 08:27:12;;;;;;;;;;;;;;;18.47;44.44;99740.28;5076374;28;825;-54
2022/02/22 08:29:38;;;;;;;;;;;;;;;19.46;42.20;99734.75;5075751;28;820;-56
2022/02/22 08:32:04;;;;;;;;;;;;;;;20.14;40.78;99730.88;5075754;28;863;-56
2022/02/22 08:34:29;;;;;;;;;;;;;;;20.40;39.92;99739.19;5075971;28;773;-54
2022/02/22 08:36:54;;;;;;;;;;;;;;;20.67;39.47;99734.47;5076192;28;874;-54
2022/02/22 08:39:23;;;;;;;;;;;;;;;20.81;39.14;99743.41;5076249;28;1973;-54
2022/02/22 08:41:50;;;;;;;;;;;;;;;21.00;38.72;99748.56;5075640;28;778;-58
2022/02/22 08:44:15;;;;;;;;;;;;;;;21.08;38.50;99749.69;5075337;28;982;-69
2022/02/22 08:46:41;;;;;;;;;;;;;;;21.05;38.49;99742.06;5077997;28;1541;-69
2022/02/22 08:49:06;;;;;;;;;;;;;;;20.02;41.15;99750.03;5073864;28;1263;-68
2022/02/22 08:51:32;;;;;;;;;;;;;;;19.77;41.58;99755.94;5075213;28;832;-67
2022/02/22 08:53:57;;;;;;;;;;;;;;;18.44;44.45;99755.50;5075637;28;903;-67
2022/02/22 08:56:23;;;;;;;;;;;;;;;19.22;43.04;99750.84;5075223;28;811;-67
2022/02/22 08:58:48;;;;;;;;;;;;;;;20.12;41.03;99749.72;5076033;28;746;-67
2022/02/22 09:01:14;;;;;;;;;;;;;;;20.40;39.99;99755.75;5075580;28;1986;-67
2022/02/22 09:03:39;;;;;;;;;;;;;;;20.60;39.66;99753.47;5075731;28;766;-65
2022/02/22 09:06:05;;;;;;;;;;;;;;;20.89;39.02;99749.25;5075606;28;1233;-68
2022/02/22 09:08:30;;;;;;;;;;;;;;;20.95;38.94;99753.47;5075131;28;841;-68
2022/02/22 09:10:56;;;;;;;;;;;;;;;21.09;38.46;99762.38;5075272;28;816;-68
2022/02/22 09:13:21;;;;;;;;;;;;;;;20.49;39.68;99769.56;5079813;28;1407;-67
2022/02/22 09:15:49;;;;;;;;;;;;;;;20.07;41.42;99756.19;5075809;28;1380;-66
2022/02/22 09:18:14;;;;;;;;;;;;;;;19.49;42.67;99769.94;5074052;28;1193;-67
2022/02/22 09:20:40;;;;;;;;;;;;;;;18.79;44.85;99768.72;5084287;28;1901;-65
2022/02/22 09:23:06;;;;;;;;;;;;;;;19.91;42.18;99766.06;5084561;28;1403;-65
2022/02/22 09:25:35;;;;;;;;;;;;;;;20.42;41.04;99774.75;5085795;28;1367;-62
2022/02/22 09:28:01;;;;;;;;;;;;;;;20.79;40.30;99776.09;5081106;28;1537;-66
2022/02/22 09:30:28;;;;;;;;;;;;;;;20.95;40.17;99775.56;5081025;28;1399;-65
2022/02/22 09:32:53;;;;;;;;;;;;;;;21.17;39.31;99783.66;5078613;28;1557;-66
2022/02/22 09:35:20;;;;;;;;;;;;;;;21.16;39.41;99784.00;5079340;28;933;-67
2022/02/22 09:37:45;;;;;;;;;;;;;;;20.18;41.83;99785.09;5078149;28;1446;-65
2022/02/22 09:40:11;;;;;;;;;;;;;;;20.13;42.35;99789.97;5080062;28;1906;-67
2022/02/22 09:42:36;;;;;;;;;;;;;;;18.93;44.92;99791.53;5077019;28;1148;-65
2022/02/22 09:45:05;;;;;;;;;;;;;;;17.93;45.85;99786.88;5077686;28;1373;-66
2022/02/22 09:47:30;;;;;;;;;;;;;;;17.08;45.05;99770.56;5078122;28;774;-65
2022/02/22 09:49:56;;;;;;;;;;;;;;;16.63;49.26;99776.50;5077956;28;813;-65
2022/02/22 09:52:21;;;;;;;;;;;;;;;17.23;49.70;99778.53;5110713;28;1178;-66
2022/02/22 09:54:46;;;;;;;;;;;;;;;17.40;49.28;99782.66;5078353;28;856;-65
2022/02/22 09:57:12;;;;;;;;;;;;;;;17.22;49.51;99776.94;5078658;28;883;-63
2022/02/22 09:59:38;;;;;;;;;;;;;;;17.68;48.17;99766.97;5078421;28;1976;-65
2022/02/22 10:02:04;;;;;;;;;;;;;;;17.82;47.80;99758.72;5078273;28;1005;-62
2022/02/22 10:04:33;;;;;;;;;;;;;;;17.91;47.33;99756.13;5078579;28;896;-63
2022/02/22 10:07:04;;;;;;;;;;;;;;;18.03;47.25;99753.63;5078510;28;873;-53
2022/02/22 10:09:30;;;;;;;;;;;;;;;18.40;45.78;99746.22;5110221;28;834;-54
2022/02/22 10:11:55;;;;;;;;;;;;;;;17.90;47.03;99748.97;5073355;28;1338;-52
2022/02/22 10:14:21;;;;;;;;;;;;;;;17.63;47.71;99747.84;5075427;28;1487;-52
2022/02/22 10:16:47;;;;;;;;;;;;;;;18.24;46.31;99744.94;5107158;28;930;-54
2022/02/22 10:19:15;;;;;;;;;;;;;;;18.38;45.89;99750.41;5078366;28;1897;-52
2022/02/22 10:21:42;;;;;;;;;;;;;;;18.02;46.71;99738.28;5110513;28;949;-56
2022/02/22 10:24:10;;;;;;;;;;;;;;;17.76;47.40;99735.22;5078186;28;761;-47
2022/02/22 10:26:36;;;;;;;;;;;;;;;18.04;46.76;99727.75;5078249;28;753;-53
2022/02/22 10:29:17;;;;;;;;;;;;;;;18.12;46.11;99740.00;5077749;28;821;-55
2022/02/22 10:31:42;;;;;;;;;;;;;;;18.18;45.86;99730.47;5077112;28;837;-53
2022/02/22 10:34:08;;;;;;;;;;;;;;;17.85;46.66;99716.06;5078183;28;1027;-55
2022/02/22 10:36:34;;;;;;;;;;;;;;;17.76;46.95;99719.53;5078135;28;848;-53
2022/02/22 10:39:19;;;;;;;;;;;;;;;17.89;46.69;99717.06;5077403;28;1976;-54
2022/02/22 10:41:45;;;;;;;;;;;;;;;18.33;45.37;99720.25;5078150;28;757;-54
2022/02/22 10:44:11;;;;;;;;;;;;;;;18.26;45.68;99715.19;5077978;28;916;-53
2022/02/22 10:46:37;;;;;;;;;;;;;;;17.82;46.54;99722.19;5077238;28;867;-54
2022/02/22 10:49:12;;;;;;;;;;;;;;;17.74;46.85;99720.94;5077875;28;829;-53
2022/02/22 10:51:41;;;;;;;;;;;;;;;18.03;46.01;99722.56;5077209;28;883;-54
2022/02/22 10:54:07;;;;;;;;;;;;;;;18.32;45.30;99719.44;5077239;28;797;-54
2022/02/22 10:56:33;;;;;;;;;;;;;;;17.81;46.46;99715.88;5078034;28;888;-53
2022/02/22 10:58:58;;;;;;;;;;;;;;;17.48;47.18;99718.72;5077524;28;781;-53
2022/02/22 11:01:24;;;;;;;;;;;;;;;18.05;45.94;99736.84;5076934;28;1913;-53
2022/02/22 11:03:50;;;;;;;;;;;;;;;18.58;44.53;99740.84;5076941;28;1373;-54
2022/02/22 11:06:15;;;;;;;;;;;;;;;18.37;44.84;99730.34;5077970;28;743;-54
2022/02/22 11:08:44;;;;;;;;;;;;;;;17.72;46.51;99735.00;5077167;28;807;-54
2022/02/22 11:11:10;;;;;;;;;;;;;;;17.64;46.81;99732.16;5109826;28;992;-54
2022/02/22 11:13:36;;;;;;;;;;;;;;;17.69;46.95;99729.31;5077492;28;1056;-54
2022/02/22 11:16:14;;;;;;;;;;;;;;;18.02;45.75;99732.78;5076223;28;800;-55
2022/02/22 11:18:46;;;;;;;;;;;;;;;18.00;45.70;99725.94;5077008;28;853;-52
2022/02/22 11:21:12;;;;;;;;;;;;;;;17.73;46.51;99728.41;5077054;28;1976;-54
2022/02/22 11:23:37;;;;;;;;;;;;;;;17.51;47.16;99725.56;5077097;28;825;-52
2022/02/22 11:26:10;;;;;;;;;;;;;;;18.32;45.32;99718.63;5076780;28;963;-53
2022/02/22 11:28:37;;;;;;;;;;;;;;;18.17;45.43;99711.53;5076633;28;815;-53
2022/02/22 11:31:07;;;;;;;;;;;;;;;17.70;46.32;99719.97;5076039;28;859;-50
2022/02/22 11:33:39;;;;;;;;;;;;;;;17.49;47.13;99711.28;5076749;28;861;-51
2022/02/22 11:36:08;;;;;;;;;;;;;;;18.00;45.69;99721.25;5072378;28;1514;-64
2022/02/22 11:38:44;;;;;;;;;;;;;;;18.37;44.88;99713.00;5105564;28;1301;-63
2022/02/22 11:41:28;;;;;;;;;;;;;;;18.32;45.28;99716.69;5078227;28;1981;-67
2022/02/22 11:43:58;;;;;;;;;;;;;;;18.15;45.95;99714.59;5073509;28;1352;-60
2022/02/22 11:46:36;;;;;;;;;;;;;;;18.08;46.53;99704.03;5075270;28;1547;-61
2022/02/22 11:49:03;;;;;;;;;;;;;;;17.75;47.44;99706.91;5077247;28;1299;-62
2022/02/22 11:51:37;;;;;;;;;;;;;;;17.98;47.40;99707.00;5078063;28;1545;-68
2022/02/22 11:54:08;;;;;;;;;;;;;;;19.38;43.91;99705.19;5075132;28;1288;-64
2022/02/22 11:56:34;;;;;;;;;;;;;;;19.85;42.73;99699.19;5075922;28;1240;-64
2022/02/22 11:58:59;;;;;;;;;;;;;;;20.24;41.80;99694.66;5077546;28;1349;-64
2022/02/22 12:01:24;;;;;;;;;;;;;;;20.49;41.67;99697.75;5075105;28;1970;-64
2022/02/22 12:03:50;;;;;;;;;;;;;;;20.27;42.05;99691.28;5075259;28;1455;-66
2022/02/22 12:06:19;;;;;;;;;;;;;;;20.03;42.78;99697.25;5078552;28;1510;-65
2022/02/22 12:08:50;;;;;;;;;;;;;;;19.56;44.00;99708.00;5076338;28;1289;-65
2022/02/22 12:11:20;;;;;;;;;;;;;;;18.93;45.67;99705.34;5078861;28;1499;-64
2022/02/22 12:13:46;;;;;;;;;;;;;;;19.66;44.70;99705.78;5077145;28;1634;-68
2022/02/22 12:16:30;;;;;;;;;;;;;;;20.21;43.37;99709.13;5075976;28;1091;-68
2022/02/22 12:19:01;;;;;;;;;;;;;;;20.58;42.58;99706.84;5079373;28;1387;-66
2022/02/22 12:21:27;;;;;;;;;;;;;;;20.73;42.29;99707.50;5078662;28;1910;-63
2022/02/22 12:23:52;;;;;;;;;;;;;;;20.10;43.80;99705.88;5075303;28;1577;-61
2022/02/22 12:26:20;;;;;;;;;;;;;;;19.20;46.16;99720.06;5078290;28;1510;-60
2022/02/22 12:29:08;;;;;;;;;;;;;;;17.79;48.81;99713.44;5076101;28;1277;-64
2022/02/22 12:31:35;;;;;;;;;;;;;;;16.53;50.32;99724.50;5075156;28;1526;-63
2022/02/22 12:34:01;;;;;;;;;;;;;;;17.24;52.28;99725.22;5081052;28;1252;-63
2022/02/22 12:36:27;;;;;;;;;;;;;;;19.38;46.22;99731.97;5081882;28;1408;-66
2022/02/22 12:39:00;;;;;;;;;;;;;;;19.12;46.98;99735.41;5075711;28;1222;-63
2022/02/22 12:41:30;;;;;;;;;;;;;;;18.69;48.39;99727.66;5074552;28;2005;-62
2022/02/22 12:43:56;;;;;;;;;;;;;;;17.39;49.68;99724.13;5071171;28;1422;-65
2022/02/22 12:46:21;;;;;;;;;;;;;;;16.23;49.58;99719.19;5073827;28;1737;-64
2022/02/22 12:48:47;;;;;;;;;;;;;;;17.26;54.90;99724.91;5077818;28;1498;-63
2022/02/22 12:51:20;;;;;;;;;;;;;;;19.20;49.30;99725.56;5074663;28;1512;-63
2022/02/22 12:53:54;;;;;;;;;;;;;;;18.77;49.86;99735.16;5076181;28;1206;-63
2022/02/22 12:56:26;;;;;;;;;;;;;;;18.49;50.63;99734.47;5102731;27;1496;-63
2022/02/22 12:58:51;;;;;;;;;;;;;;;17.35;51.22;99734.09;5079379;28;1256;-63